Time,TemperatureF,DewpointF,PressureIn,WindDirection,WindDirectionDegrees,WindSpeedMPH,WindSpeedGustMPH,Humidity,HourlyPrecipIn,Conditions,Clouds,dailyrainin,SoftwareType,DateUTC
2013-02-23 00:01:00,43.0,42.0,30.23,NW,310,12.0,20.0,95,0.00,,,0.35,,2013-02-23 08:01:00,
2013-02-23 00:11:00,43.0,42.0,30.23,NW,310,12.0,20.0,95,0.00,,,0.35,,2013-02-23 08:11:00,
2013-02-23 00:21:00,43.0,42.0,30.23,NW,310,12.0,20.0,95,0.00,,,0.35,,2013-02-23 08:21:00,
2013-02-23 00:31:00,43.0,41.0,30.24,NW,322,10.0,23.0,91,0.00,,,0.35,,2013-02-23 08:31:00,
2013-02-23 00:41:00,43.0,41.0,30.24,NW,322,10.0,23.0,91,0.00,,,0.35,,2013-02-23 08:41:00,
2013-02-23 00:52:00,43.0,41.0,30.24,North,357,0.0,15.0,91,0.00,,,0.35,,2013-02-23 08:52:00,
2013-02-23 01:01:00,43.0,41.0,30.23,North,357,0.0,17.0,91,0.00,,,0.35,,2013-02-23 09:01:00,
2013-02-23 01:11:00,43.0,41.0,30.23,North,357,0.0,17.0,91,0.00,,,0.35,,2013-02-23 09:11:00,
2013-02-23 01:21:00,44.0,41.0,30.24,North,357,0.0,19.0,89,0.00,,,0.35,,2013-02-23 09:21:00,
2013-02-23 01:31:00,43.0,40.0,30.24,North,0,0.0,25.0,89,0.00,,,0.35,,2013-02-23 09:31:00,
2013-02-23 01:41:00,43.0,40.0,30.24,North,0,0.0,25.0,89,0.00,,,0.35,,2013-02-23 09:41:00,
2013-02-23 01:52:00,43.0,41.0,30.25,North,0,0.0,2.0,92,0.00,,,0.35,,2013-02-23 09:52:00,
2013-02-23 02:01:00,43.0,40.0,30.25,North,0,0.0,5.0,89,0.00,,,0.35,,2013-02-23 10:01:00,
2013-02-23 02:11:00,44.0,41.0,30.25,North,0,0.0,5.0,90,0.00,,,0.35,,2013-02-23 10:11:00,
2013-02-23 02:21:00,44.0,41.0,30.25,North,0,0.0,5.0,90,0.00,,,0.35,,2013-02-23 10:21:00,
2013-02-23 02:31:00,43.0,41.0,30.26,North,0,0.0,0.0,93,0.00,,,0.34,,2013-02-23 10:31:00,
2013-02-23 02:41:00,43.0,41.0,30.26,North,0,0.0,0.0,93,0.00,,,0.34,,2013-02-23 10:41:00,
2013-02-23 02:51:00,43.0,41.0,30.26,North,0,0.0,3.0,91,0.00,,,0.34,,2013-02-23 10:51:00,
2013-02-23 03:02:00,43.0,40.0,30.27,North,0,0.0,1.0,90,0.00,,,0.34,,2013-02-23 11:02:00,
2013-02-23 03:11:00,43.0,40.0,30.27,North,0,0.0,1.0,90,0.00,,,0.34,,2013-02-23 11:11:00,
2013-02-23 03:21:00,43.0,41.0,30.27,North,0,0.0,0.0,91,0.00,,,0.34,,2013-02-23 11:21:00,
2013-02-23 03:32:00,40.0,39.0,30.29,North,0,3.0,26.0,95,0.00,,,0.34,,2013-02-23 11:32:00,
2013-02-23 03:41:00,40.0,39.0,30.29,North,0,3.0,26.0,95,0.00,,,0.34,,2013-02-23 11:41:00,
2013-02-23 03:52:00,40.0,39.0,30.28,North,0,0.0,0.0,95,0.00,,,0.34,,2013-02-23 11:52:00,
2013-02-23 04:01:00,39.0,38.0,30.28,North,0,0.0,0.0,97,0.00,,,0.34,,2013-02-23 12:01:00,
2013-02-23 04:11:00,39.0,38.0,30.28,North,0,0.0,0.0,97,0.00,,,0.34,,2013-02-23 12:11:00,
2013-02-23 04:21:00,38.0,38.0,30.28,North,0,0.0,0.0,99,0.00,,,0.34,,2013-02-23 12:21:00,
2013-02-23 04:32:00,41.0,41.0,30.29,NNE,30,3.0,20.0,99,0.00,,,0.34,,2013-02-23 12:32:00,
2013-02-23 04:41:00,41.0,41.0,30.29,NNE,30,3.0,20.0,99,0.00,,,0.34,,2013-02-23 12:41:00,
2013-02-23 04:52:00,41.0,40.0,30.30,NW,320,0.0,6.0,98,0.00,,,0.34,,2013-02-23 12:52:00,
2013-02-23 05:01:00,41.0,40.0,30.30,North,0,0.0,0.0,98,0.00,,,0.34,,2013-02-23 13:01:00,
2013-02-23 05:11:00,40.0,39.0,30.31,NNW,348,0.0,4.0,98,0.00,,,0.34,,2013-02-23 13:11:00,
2013-02-23 05:22:00,40.0,39.0,30.31,NNW,348,0.0,4.0,98,0.00,,,0.34,,2013-02-23 13:22:00,
2013-02-23 05:31:00,40.0,40.0,30.32,North,0,0.0,0.0,99,0.00,,,0.34,,2013-02-23 13:31:00,
2013-02-23 05:41:00,39.0,39.0,30.32,North,0,0.0,0.0,100,0.00,,,0.34,,2013-02-23 13:41:00,
2013-02-23 05:52:00,39.0,39.0,30.32,North,0,0.0,0.0,100,0.00,,,0.34,,2013-02-23 13:52:00,
2013-02-23 06:01:00,40.0,40.0,30.32,North,357,7.0,17.0,99,0.00,,,0.34,,2013-02-23 14:01:00,
2013-02-23 06:11:00,42.0,41.0,30.33,North,357,0.0,17.0,97,0.00,,,0.34,,2013-02-23 14:11:00,
2013-02-23 06:21:00,42.0,41.0,30.33,North,357,0.0,17.0,97,0.00,,,0.34,,2013-02-23 14:21:00,
2013-02-23 06:32:00,43.0,42.0,30.33,WNW,296,10.0,17.0,95,0.00,,,0.34,,2013-02-23 14:32:00,
2013-02-23 06:41:00,43.0,42.0,30.33,WNW,296,10.0,17.0,95,0.00,,,0.34,,2013-02-23 14:41:00,
2013-02-23 06:52:00,43.0,41.0,30.33,North,357,2.0,19.0,94,0.00,,,0.34,,2013-02-23 14:52:00,
2013-02-23 07:01:00,43.0,41.0,30.34,North,357,0.0,4.0,94,0.00,,,0.34,,2013-02-23 15:01:00,
2013-02-23 07:11:00,43.0,41.0,30.34,North,357,0.0,4.0,94,0.00,,,0.34,,2013-02-23 15:11:00,
2013-02-23 07:21:00,43.0,41.0,30.35,North,0,0.0,4.0,93,0.00,,,0.34,,2013-02-23 15:21:00,
2013-02-23 07:31:00,43.0,41.0,30.35,WNW,294,5.0,13.0,93,0.00,,,0.34,,2013-02-23 15:31:00,
2013-02-23 07:41:00,43.0,41.0,30.35,WNW,294,5.0,13.0,93,0.00,,,0.34,,2013-02-23 15:41:00,
2013-02-23 07:52:00,44.0,42.0,30.35,NW,305,8.0,13.0,93,0.00,,,0.34,,2013-02-23 15:52:00,
2013-02-23 08:01:00,42.0,40.0,30.37,North,0,0.0,25.0,94,0.00,,,0.34,,2013-02-23 16:01:00,
2013-02-23 08:11:00,42.0,40.0,30.37,North,0,0.0,25.0,94,0.00,,,0.34,,2013-02-23 16:11:00,
2013-02-23 08:21:00,42.0,40.0,30.37,North,357,2.0,9.0,94,0.00,,,0.34,,2013-02-23 16:21:00,
2013-02-23 08:31:00,43.0,41.0,30.37,North,0,0.0,9.0,93,0.00,,,0.34,,2013-02-23 16:31:00,
2013-02-23 08:42:00,43.0,41.0,30.37,North,0,0.0,9.0,93,0.00,,,0.34,,2013-02-23 16:42:00,
2013-02-23 08:52:00,44.0,42.0,30.39,North,357,0.0,10.0,93,0.00,,,0.34,,2013-02-23 16:52:00,
2013-02-23 09:01:00,44.0,42.0,30.40,ESE,123,0.0,10.0,92,0.00,,,0.34,,2013-02-23 17:01:00,
2013-02-23 09:11:00,44.0,42.0,30.40,North,357,0.0,2.0,92,0.00,,,0.34,,2013-02-23 17:11:00,
2013-02-23 09:21:00,44.0,42.0,30.40,North,357,0.0,2.0,92,0.00,,,0.34,,2013-02-23 17:21:00,
2013-02-23 09:31:00,45.0,43.0,30.40,North,352,7.0,11.0,92,0.00,,,0.34,,2013-02-23 17:31:00,
2013-02-23 09:41:00,45.0,43.0,30.40,North,352,7.0,11.0,92,0.00,,,0.34,,2013-02-23 17:41:00,
2013-02-23 09:52:00,42.0,40.0,30.41,North,0,0.0,15.0,93,0.00,,,0.34,,2013-02-23 17:52:00,
2013-02-23 10:01:00,42.0,41.0,30.42,North,0,0.0,7.0,97,0.00,,,0.34,,2013-02-23 18:01:00,
2013-02-23 10:11:00,42.0,41.0,30.42,North,0,0.0,7.0,97,0.00,,,0.34,,2013-02-23 18:11:00,
2013-02-23 10:21:00,42.0,41.0,30.42,North,0,0.0,0.0,98,0.00,,,0.34,,2013-02-23 18:21:00,
2013-02-23 10:31:00,42.0,41.0,30.43,NNE,16,5.0,23.0,98,0.00,,,0.34,,2013-02-23 18:31:00,
2013-02-23 10:41:00,42.0,41.0,30.43,NNE,16,5.0,23.0,98,0.00,,,0.34,,2013-02-23 18:41:00,
2013-02-23 10:52:00,43.0,41.0,30.43,North,0,0.0,10.0,94,0.00,,,0.34,,2013-02-23 18:52:00,
2013-02-23 11:01:00,43.0,42.0,30.44,North,0,0.0,4.0,95,0.00,,,0.34,,2013-02-23 19:01:00,
2013-02-23 11:11:00,43.0,42.0,30.44,NNW,334,0.0,6.0,96,0.00,,,0.34,,2013-02-23 19:11:00,
2013-02-23 11:21:00,43.0,42.0,30.44,NNW,334,0.0,6.0,96,0.00,,,0.34,,2013-02-23 19:21:00,
2013-02-23 11:32:00,45.0,43.0,30.44,SE,128,2.0,11.0,94,0.00,,,0.34,,2013-02-23 19:32:00,
2013-02-23 11:41:00,45.0,43.0,30.44,SE,128,2.0,11.0,94,0.00,,,0.34,,2013-02-23 19:41:00,
2013-02-23 11:51:00,44.0,42.0,30.45,North,0,0.0,14.0,93,0.00,,,0.34,,2013-02-23 19:51:00,
2013-02-23 12:01:00,44.0,42.0,30.45,North,8,0.0,5.0,93,0.00,,,0.34,,2013-02-23 20:01:00,
2013-02-23 12:11:00,44.0,42.0,30.45,North,8,0.0,5.0,93,0.00,,,0.34,,2013-02-23 20:11:00,
2013-02-23 12:21:00,43.0,41.0,30.46,NNE,19,2.0,12.0,94,0.00,,,0.34,,2013-02-23 20:21:00,
2013-02-23 12:31:00,43.0,41.0,30.46,NNW,345,1.0,7.0,94,0.00,,,0.34,,2013-02-23 20:31:00,
2013-02-23 12:41:00,43.0,41.0,30.46,NNW,345,1.0,7.0,94,0.00,,,0.34,,2013-02-23 20:41:00,
2013-02-23 12:52:00,44.0,42.0,30.45,North,9,0.0,6.0,94,0.00,,,0.26,,2013-02-23 20:52:00,
2013-02-23 13:01:00,46.0,44.0,30.45,ESE,103,8.0,17.0,93,0.00,,,0.26,,2013-02-23 21:01:00,
2013-02-23 13:11:00,46.0,43.0,30.44,NNE,28,10.0,15.0,89,0.00,,,0.26,,2013-02-23 21:11:00,
2013-02-23 13:21:00,46.0,43.0,30.44,NNE,28,10.0,15.0,89,0.00,,,0.26,,2013-02-23 21:21:00,
2013-02-23 13:31:00,46.0,43.0,30.44,North,0,1.0,15.0,90,0.00,,,0.19,,2013-02-23 21:31:00,
2013-02-23 13:41:00,46.0,43.0,30.44,North,0,1.0,15.0,90,0.00,,,0.19,,2013-02-23 21:41:00,
2013-02-23 13:52:00,46.0,44.0,30.44,North,357,1.0,15.0,91,0.00,,,0.19,,2013-02-23 21:52:00,
2013-02-23 14:01:00,46.0,44.0,30.44,North,357,1.0,15.0,91,0.00,,,0.19,,2013-02-23 22:01:00,
2013-02-23 14:11:00,47.0,44.0,30.44,North,357,0.0,11.0,88,0.00,,,0.19,,2013-02-23 22:11:00,
2013-02-23 14:21:00,47.0,44.0,30.44,North,357,0.0,11.0,88,0.00,,,0.19,,2013-02-23 22:21:00,
2013-02-23 14:31:00,47.0,43.0,30.44,North,0,0.0,11.0,86,0.00,,,0.10,,2013-02-23 22:31:00,
2013-02-23 14:42:00,47.0,43.0,30.44,North,0,0.0,11.0,86,0.00,,,0.10,,2013-02-23 22:42:00,
2013-02-23 14:52:00,46.0,42.0,30.45,WNW,303,9.0,17.0,87,0.00,,,0.10,,2013-02-23 22:52:00,
2013-02-23 15:01:00,43.0,41.0,30.46,NW,320,1.0,7.0,93,0.00,,,0.10,,2013-02-23 23:01:00,
2013-02-23 15:11:00,44.0,42.0,30.46,North,0,0.0,0.0,94,0.00,,,0.10,,2013-02-23 23:11:00,
2013-02-23 15:21:00,44.0,42.0,30.46,North,0,0.0,0.0,94,0.00,,,0.10,,2013-02-23 23:21:00,
2013-02-23 15:31:00,45.0,43.0,30.46,North,0,0.0,0.0,94,0.00,,,0.06,,2013-02-23 23:31:00,
2013-02-23 15:41:00,45.0,43.0,30.46,North,0,0.0,0.0,94,0.00,,,0.06,,2013-02-23 23:41:00,
2013-02-23 15:52:00,45.0,43.0,30.46,WNW,301,0.0,7.0,92,0.00,,,0.06,,2013-02-23 23:52:00,
2013-02-23 16:01:00,45.0,43.0,30.47,WNW,299,5.0,7.0,92,0.00,,,0.06,,2013-02-24 00:01:00,
2013-02-23 16:11:00,45.0,43.0,30.47,NNW,334,6.0,9.0,91,0.00,,,0.06,,2013-02-24 00:11:00,
2013-02-23 16:21:00,45.0,43.0,30.47,NNW,334,6.0,9.0,91,0.00,,,0.06,,2013-02-24 00:21:00,
2013-02-23 16:31:00,46.0,44.0,30.47,NW,310,4.0,6.0,91,0.00,,,0.00,,2013-02-24 00:31:00,
2013-02-23 16:42:00,46.0,44.0,30.47,NW,310,4.0,6.0,91,0.00,,,0.00,,2013-02-24 00:42:00,
2013-02-23 16:52:00,46.0,43.0,30.47,NNW,329,4.0,8.0,90,0.00,,,0.00,,2013-02-24 00:52:00,
2013-02-23 17:01:00,45.0,42.0,30.46,NW,315,2.0,9.0,90,0.00,,,0.00,,2013-02-24 01:01:00,
2013-02-23 17:11:00,45.0,42.0,30.46,NW,315,2.0,9.0,90,0.00,,,0.00,,2013-02-24 01:11:00,
2013-02-23 17:21:00,45.0,42.0,30.47,West,278,3.0,8.0,90,0.00,,,0.00,,2013-02-24 01:21:00,
2013-02-23 17:31:00,45.0,42.0,30.47,North,0,0.0,10.0,90,0.00,,,0.00,,2013-02-24 01:31:00,
2013-02-23 17:41:00,45.0,42.0,30.47,North,0,0.0,10.0,90,0.00,,,0.00,,2013-02-24 01:41:00,
2013-02-23 17:52:00,45.0,42.0,30.47,North,357,0.0,7.0,90,0.00,,,0.00,,2013-02-24 01:52:00,
2013-02-23 18:01:00,44.0,42.0,30.47,North,0,0.0,13.0,92,0.00,,,0.00,,2013-02-24 02:01:00,
2013-02-23 18:11:00,44.0,42.0,30.47,North,0,0.0,13.0,92,0.00,,,0.00,,2013-02-24 02:11:00,
2013-02-23 18:21:00,44.0,42.0,30.47,NW,305,0.0,7.0,91,0.00,,,0.00,,2013-02-24 02:21:00,
2013-02-23 18:31:00,44.0,42.0,30.47,NW,317,0.0,7.0,91,0.00,,,0.00,,2013-02-24 02:31:00,
2013-02-23 18:41:00,44.0,42.0,30.47,NW,317,0.0,7.0,91,0.00,,,0.00,,2013-02-24 02:41:00,
2013-02-23 18:52:00,43.0,41.0,30.49,North,0,0.0,0.0,93,0.00,,,0.00,,2013-02-24 02:52:00,
2013-02-23 19:01:00,44.0,42.0,30.49,WNW,298,1.0,7.0,91,0.00,,,0.00,,2013-02-24 03:01:00,
2013-02-23 19:11:00,42.0,40.0,30.49,North,0,0.0,7.0,94,0.00,,,0.00,,2013-02-24 03:11:00,
2013-02-23 19:21:00,42.0,40.0,30.49,North,0,0.0,7.0,94,0.00,,,0.00,,2013-02-24 03:21:00,
2013-02-23 19:31:00,41.0,40.0,30.49,North,0,0.0,0.0,96,0.00,,,0.00,,2013-02-24 03:31:00,
2013-02-23 19:42:00,41.0,40.0,30.49,North,0,0.0,0.0,96,0.00,,,0.00,,2013-02-24 03:42:00,
2013-02-23 19:52:00,40.0,39.0,30.50,North,0,0.0,0.0,98,0.00,,,0.00,,2013-02-24 03:52:00,
2013-02-23 20:01:00,39.0,39.0,30.49,North,0,0.0,0.0,99,0.00,,,0.00,,2013-02-24 04:01:00,
2013-02-23 20:11:00,39.0,39.0,30.49,North,0,0.0,0.0,99,0.00,,,0.00,,2013-02-24 04:11:00,
2013-02-23 20:21:00,39.0,39.0,30.50,North,0,0.0,0.0,99,0.00,,,0.00,,2013-02-24 04:21:00,
2013-02-23 20:31:00,39.0,39.0,30.50,North,0,0.0,0.0,100,0.00,,,0.00,,2013-02-24 04:31:00,
2013-02-23 20:41:00,39.0,39.0,30.50,North,0,0.0,0.0,100,0.00,,,0.00,,2013-02-24 04:41:00,
2013-02-23 20:52:00,39.0,39.0,30.50,North,0,0.0,0.0,100,0.00,,,0.00,,2013-02-24 04:52:00,
2013-02-23 21:01:00,39.0,39.0,30.50,North,0,0.0,0.0,100,0.00,,,0.00,,2013-02-24 05:01:00,
2013-02-23 21:11:00,39.0,39.0,30.50,North,0,0.0,0.0,100,0.00,,,0.00,,2013-02-24 05:11:00,
2013-02-23 21:21:00,39.0,39.0,30.51,North,0,0.0,0.0,100,0.00,,,0.00,,2013-02-24 05:21:00,
2013-02-23 21:32:00,38.0,38.0,30.51,North,0,0.0,0.0,100,0.00,,,0.00,,2013-02-24 05:32:00,
2013-02-23 21:41:00,38.0,38.0,30.51,North,0,0.0,0.0,100,0.00,,,0.00,,2013-02-24 05:41:00,
2013-02-23 21:52:00,38.0,38.0,30.50,North,0,0.0,0.0,100,0.00,,,0.00,,2013-02-24 05:52:00,
2013-02-23 22:01:00,38.0,38.0,30.51,North,0,0.0,0.0,100,0.00,,,0.00,,2013-02-24 06:01:00,
2013-02-23 22:11:00,38.0,38.0,30.51,North,0,0.0,0.0,100,0.00,,,0.00,,2013-02-24 06:11:00,
2013-02-23 22:21:00,38.0,38.0,30.50,North,0,0.0,0.0,100,0.00,,,0.00,,2013-02-24 06:21:00,
2013-02-23 22:31:00,38.0,38.0,30.50,North,0,0.0,0.0,100,0.00,,,0.00,,2013-02-24 06:31:00,
2013-02-23 22:41:00,38.0,38.0,30.50,North,0,0.0,0.0,100,0.00,,,0.00,,2013-02-24 06:41:00,
2013-02-23 22:52:00,38.0,38.0,30.50,North,0,0.0,0.0,100,0.00,,,0.00,,2013-02-24 06:52:00,
2013-02-23 23:01:00,38.0,38.0,30.50,North,0,0.0,0.0,100,0.00,,,0.00,,2013-02-24 07:01:00,
2013-02-23 23:11:00,38.0,38.0,30.50,North,0,0.0,0.0,100,0.00,,,0.00,,2013-02-24 07:11:00,
2013-02-23 23:21:00,38.0,38.0,30.51,North,0,0.0,0.0,100,0.00,,,0.00,,2013-02-24 07:21:00,
2013-02-23 23:31:00,38.0,38.0,30.50,North,0,0.0,0.0,100,0.00,,,0.00,,2013-02-24 07:31:00,
2013-02-23 23:41:00,38.0,38.0,30.50,North,0,0.0,0.0,100,0.00,,,0.00,,2013-02-24 07:41:00,
2013-02-23 23:51:00,38.0,38.0,30.50,North,0,0.0,0.0,100,0.00,,,0.00,,2013-02-24 07:51:00,